Time;durP1;ratioP1;P1;durP2;ratioP2;P2;SDS_P1;SDS_P2;PMS_P1;PMS_P2;Temp;Humidity;BMP_temperature;BMP_pressure;BME280_temperature;BME280_humidity;BME280_pressure;Samples;Min_cycle;Max_cycle;Signal;HPM_P1;HPM_P2
2023/04/05 00:00:09;;;;;;;8.70;3.17;;;;;;;-3.09;91.40;99059.69;3208985;23;20024;-87
2023/04/05 00:01:34;;;;;;;7.70;3.35;;;;;;;-3.03;89.28;99054.78;3209574;23;20357;-89
2023/04/05 00:02:50;;;;;;;9.48;3.70;;;;;;;-3.11;90.21;99057.06;3209133;23;20020;-87
2023/04/05 00:04:06;;;;;;;7.25;3.20;;;;;;;-3.19;91.09;99061.06;3209191;23;20031;-87
2023/04/05 00:05:28;;;;;;;8.57;3.25;;;;;;;-3.31;92.17;99054.66;3209202;23;20031;-87
2023/04/05 00:06:45;;;;;;;8.80;3.80;;;;;;;-3.21;92.69;99052.41;3208742;23;20020;-88
2023/04/05 00:08:03;;;;;;;9.32;3.78;;;;;;;-3.04;93.05;99053.03;3208962;23;20396;-87
2023/04/05 00:09:19;;;;;;;12.63;4.50;;;;;;;-3.03;93.21;99053.13;3209248;23;20299;-87
2023/04/05 00:10:35;;;;;;;7.75;3.70;;;;;;;-3.08;93.28;99041.81;3208932;23;20161;-87
2023/04/05 00:11:50;;;;;;;10.63;4.13;;;;;;;-2.92;92.85;99047.50;3209497;23;20032;-86
2023/04/05 00:13:06;;;;;;;6.10;3.25;;;;;;;-3.07;95.12;99048.72;3209042;23;20049;-87
2023/04/05 00:14:21;;;;;;;9.20;3.35;;;;;;;-3.19;98.59;99046.53;3209407;23;20024;-88
2023/04/05 00:15:37;;;;;;;9.85;3.00;;;;;;;-3.35;100.00;99044.25;3210067;23;20023;-87
2023/04/05 00:16:53;;;;;;;5.97;2.50;;;;;;;-3.46;100.00;99034.47;3208475;23;20031;-87
2023/04/05 00:18:20;;;;;;;6.45;2.53;;;;;;;-3.42;100.00;99038.91;3209214;23;20051;-87
2023/04/05 00:19:36;;;;;;;7.55;3.33;;;;;;;-3.10;98.39;99037.47;3209375;23;20025;-87
2023/04/05 00:20:52;;;;;;;6.70;2.90;;;;;;;-3.18;97.72;99037.19;3208932;23;20078;-88
2023/04/05 00:22:09;;;;;;;9.88;2.45;;;;;;;-3.35;96.20;99042.56;3209119;23;20060;-87
2023/04/05 00:23:25;;;;;;;5.13;2.55;;;;;;;-3.30;95.67;99040.16;3208823;23;20027;-87
2023/04/05 00:24:42;;;;;;;4.35;2.35;;;;;;;-3.47;96.56;99032.72;3209265;23;20023;-87
2023/04/05 00:25:57;;;;;;;5.18;2.40;;;;;;;-3.37;95.63;99035.63;3208830;23;20052;-86
2023/04/05 00:27:13;;;;;;;6.88;2.97;;;;;;;-3.27;96.41;99035.16;3209050;23;20025;-87
2023/04/05 00:28:28;;;;;;;6.32;3.30;;;;;;;-3.12;95.98;99028.03;3208915;23;20074;-88
2023/04/05 00:29:44;;;;;;;8.55;2.80;;;;;;;-3.12;93.59;99032.28;3209159;23;20326;-87
2023/04/05 00:30:59;;;;;;;7.35;3.78;;;;;;;-3.21;92.66;99034.50;3209176;23;20031;-88
2023/04/05 00:32:15;;;;;;;6.53;2.80;;;;;;;-3.28;91.33;99026.59;3208957;23;20031;-88
2023/04/05 00:33:31;;;;;;;5.93;2.83;;;;;;;-3.30;91.57;99030.78;3209186;23;20021;-87
2023/04/05 00:34:46;;;;;;;7.50;3.03;;;;;;;-3.22;91.11;99025.06;3209054;23;20192;-88
2023/04/05 00:36:13;;;;;;;8.07;2.92;;;;;;;-3.12;91.37;99024.59;3209090;23;20349;-87
2023/04/05 00:37:28;;;;;;;8.15;3.40;;;;;;;-3.13;90.77;99023.75;3208824;23;20023;-87
2023/04/05 00:38:46;;;;;;;7.07;2.67;;;;;;;-3.17;90.62;99026.13;3209069;23;20465;-88
2023/04/05 00:40:03;;;;;;;6.63;2.60;;;;;;;-3.21;90.76;99017.44;3208970;23;20456;-87
2023/04/05 00:41:18;;;;;;;7.45;3.30;;;;;;;-3.22;91.75;99019.94;3209426;23;20025;-87
2023/04/05 00:42:34;;;;;;;6.63;3.17;;;;;;;-3.18;91.28;99021.81;3209120;23;20480;-87
2023/04/05 00:43:49;;;;;;;9.65;3.78;;;;;;;-3.20;90.86;99018.34;3209048;23;20075;-87
2023/04/05 00:45:06;;;;;;;8.63;4.22;;;;;;;-3.22;91.67;99017.38;3208980;23;20060;-87
2023/04/05 00:46:21;;;;;;;7.50;3.67;;;;;;;-3.24;90.93;99021.59;3208073;23;20107;-87
2023/04/05 00:47:37;;;;;;;8.52;4.07;;;;;;;-3.33;91.75;99025.56;3208345;23;20024;-87
2023/04/05 00:48:53;;;;;;;10.18;4.57;;;;;;;-3.44;92.87;99016.59;3209671;23;20029;-87
2023/04/05 00:50:12;;;;;;;8.23;3.55;;;;;;;-3.51;95.53;99014.63;3209941;23;20024;-87
2023/04/05 00:51:30;;;;;;;8.27;3.80;;;;;;;-3.37;95.32;99018.56;3210430;23;20023;-87
2023/04/05 00:52:45;;;;;;;10.60;4.43;;;;;;;-3.15;93.62;99019.38;3210170;23;20025;-87
2023/04/05 00:54:01;;;;;;;8.23;3.95;;;;;;;-3.06;93.32;99014.59;3210049;23;20017;-87
2023/04/05 00:55:17;;;;;;;7.75;3.35;;;;;;;-3.22;96.00;99013.16;3210176;23;20024;-87
2023/04/05 00:56:33;;;;;;;5.88;3.20;;;;;;;-3.38;97.93;99023.66;3193836;23;20385;-87
2023/04/05 00:57:49;;;;;;;8.25;3.40;;;;;;;-3.54;99.24;99015.41;3200131;23;20040;-86
2023/04/05 00:59:05;;;;;;;7.53;3.55;;;;;;;-3.63;98.15;99015.03;3210129;23;20021;-87
2023/04/05 01:00:21;;;;;;;8.73;3.58;;;;;;;-3.55;96.97;99017.06;3209182;23;20337;-87
2023/04/05 01:01:40;;;;;;;5.93;3.10;;;;;;;-3.58;96.50;99016.06;3210144;23;20021;-87
2023/04/05 01:03:00;;;;;;;9.27;3.60;;;;;;;-3.62;96.49;99012.53;3209978;23;20796;-87
2023/04/05 01:04:20;;;;;;;9.35;3.42;;;;;;;-3.53;95.63;99012.03;3209994;23;20024;-87
2023/04/05 01:05:41;;;;;;;6.90;3.33;;;;;;;-3.60;96.58;99012.59;3193351;23;20049;-87
2023/04/05 01:07:12;;;;;;;7.35;3.25;;;;;;;-3.61;96.42;99011.72;3201888;23;20025;-87
2023/04/05 01:08:42;;;;;;;8.75;3.38;;;;;;;-3.61;96.87;99011.72;3210063;23;20091;-87
2023/04/05 01:09:59;;;;;;;7.18;2.75;;;;;;;-3.68;97.56;99004.63;3210210;23;20392;-87
2023/04/05 01:11:16;;;;;;;8.90;3.50;;;;;;;-3.68;99.33;99009.75;3210148;23;20027;-87
2023/04/05 01:12:35;;;;;;;6.20;3.15;;;;;;;-3.65;98.61;99007.28;3209797;23;20047;-87
2023/04/05 01:13:59;;;;;;;6.57;3.28;;;;;;;-3.58;97.54;99008.41;3210089;23;20016;-86
2023/04/05 01:15:14;;;;;;;11.20;3.20;;;;;;;-3.68;97.08;99009.75;3192955;23;20028;-86
2023/04/05 01:16:30;;;;;;;6.28;3.28;;;;;;;-3.73;97.47;99009.56;3199992;23;20028;-87
2023/04/05 01:17:47;;;;;;;8.18;3.45;;;;;;;-3.68;97.48;99007.19;3210009;23;20017;-86
2023/04/05 01:19:03;;;;;;;9.82;3.33;;;;;;;-3.71;99.80;99007.06;3209793;23;20025;-86
2023/04/05 01:20:19;;;;;;;8.10;3.55;;;;;;;-3.59;100.00;98997.31;3209864;23;20031;-86
2023/04/05 01:21:37;;;;;;;10.35;3.70;;;;;;;-3.45;100.00;98992.69;3209946;23;20016;-87
2023/04/05 01:22:59;;;;;;;7.78;3.42;;;;;;;-3.63;100.00;98997.13;3209783;23;20024;-86
2023/04/05 01:24:49;;;;;;;10.48;3.28;;;;;;;-3.81;100.00;98995.63;3209906;23;20353;-87
2023/04/05 01:26:53;;;;;;;4.82;2.63;;;;;;;-3.87;100.00;98998.81;3209704;23;20020;-87
2023/04/05 01:28:14;;;;;;;;;;;;;;;-3.62;100.00;98992.06;3177774;23;20025;-86
2023/04/05 01:30:05;;;;;;;9.35;2.88;;;;;;;-3.57;100.00;98994.78;3177255;23;20476;-86
2023/04/05 01:31:24;;;;;;;5.82;3.17;;;;;;;-3.65;99.59;98994.50;3177241;23;20017;-86
2023/04/05 01:32:53;;;;;;;6.65;3.05;;;;;;;-3.87;100.00;98997.91;3177202;23;20027;-87
2023/04/05 01:34:35;;;;;;;10.40;3.42;;;;;;;-3.89;100.00;98995.31;3177093;23;20484;-86
2023/04/05 01:35:58;;;;;;;8.00;2.85;;;;;;;-3.60;100.00;98995.56;3177042;23;20025;-86
2023/04/05 01:37:17;;;;;;;9.45;3.60;;;;;;;-3.42;100.00;98990.25;3176956;23;20030;-86
2023/04/05 01:38:37;;;;;;;10.23;3.60;;;;;;;-3.47;99.21;98994.31;3177019;23;20583;-86
2023/04/05 01:39:54;;;;;;;13.70;4.57;;;;;;;-3.40;97.32;98997.97;3177108;23;20022;-86
2023/04/05 01:41:10;;;;;;;8.27;4.15;;;;;;;-3.36;97.70;98994.69;3177415;23;20025;-86
2023/04/05 01:42:26;;;;;;;9.50;4.03;;;;;;;-3.33;97.51;98996.50;3177612;23;20036;-87
2023/04/05 01:43:41;;;;;;;7.25;3.58;;;;;;;-3.34;98.00;98997.34;3177244;23;20419;-87
2023/04/05 01:44:57;;;;;;;7.40;3.53;;;;;;;-3.36;95.92;98989.59;3176960;23;20102;-86
2023/04/05 01:46:12;;;;;;;9.32;4.57;;;;;;;-3.39;94.36;98992.03;3177670;23;20025;-86
2023/04/05 01:47:28;;;;;;;12.15;4.80;;;;;;;-3.49;95.59;98988.28;3177142;23;20481;-86
2023/04/05 01:48:44;;;;;;;11.13;4.53;;;;;;;-3.48;94.62;98992.56;3177425;23;20029;-86
2023/04/05 01:49:59;;;;;;;10.23;4.90;;;;;;;-3.48;93.75;98986.59;3177254;23;20029;-86
2023/04/05 01:51:15;;;;;;;12.15;4.90;;;;;;;-3.44;92.44;98985.88;3161573;23;20018;-86
2023/04/05 01:52:30;;;;;;;10.73;4.70;;;;;;;-3.56;93.01;98986.31;3167989;23;20798;-86
2023/04/05 01:53:46;;;;;;;12.20;4.65;;;;;;;-3.72;94.09;98990.81;3177269;23;20032;-87
2023/04/05 01:55:02;;;;;;;11.00;5.20;;;;;;;-3.72;94.34;98989.97;3176966;23;20033;-87
2023/04/05 01:56:17;;;;;;;10.55;4.63;;;;;;;-3.72;93.22;98988.28;3161545;23;20126;-86
2023/04/05 01:57:33;;;;;;;10.32;4.70;;;;;;;-3.71;91.86;98984.91;3167841;23;20482;-87
2023/04/05 01:58:49;;;;;;;11.98;4.97;;;;;;;-3.79;93.28;98983.75;3177893;23;20030;-87
2023/04/05 02:00:05;;;;;;;12.40;4.95;;;;;;;-3.79;93.14;98980.31;3207113;23;20031;-87
2023/04/05 02:01:20;;;;;;;9.55;4.47;;;;;;;-3.83;92.44;98982.75;3209562;23;20016;-86
2023/04/05 02:02:36;;;;;;;9.82;5.30;;;;;;;-3.87;93.05;98991.13;3209788;23;20020;-87
2023/04/05 02:03:52;;;;;;;12.23;5.05;;;;;;;-3.87;93.36;98986.00;3209568;23;20025;-87
2023/04/05 02:05:07;;;;;;;10.05;4.32;;;;;;;-3.88;91.63;98991.94;3210601;23;20024;-88
2023/04/05 02:06:23;;;;;;;8.88;4.60;;;;;;;-3.82;93.35;98978.53;3209716;23;20052;-87
2023/04/05 02:07:39;;;;;;;12.45;5.13;;;;;;;-3.83;93.64;98987.88;3210147;23;20020;-86
2023/04/05 02:08:54;;;;;;;9.52;4.90;;;;;;;-3.80;94.61;98982.00;3208625;23;20024;-87
2023/04/05 02:10:10;;;;;;;10.48;5.05;;;;;;;-3.86;96.08;98981.75;3208899;23;20043;-87
2023/04/05 02:11:25;;;;;;;13.10;5.10;;;;;;;-3.92;96.19;98982.38;3209638;23;20036;-87
2023/04/05 02:12:41;;;;;;;11.65;5.57;;;;;;;-3.92;96.43;98978.97;3194458;23;20047;-87
2023/04/05 02:13:57;;;;;;;11.90;4.80;;;;;;;-3.84;94.86;98978.44;3194108;23;20021;-87
2023/04/05 02:15:12;;;;;;;8.68;4.97;;;;;;;-3.77;93.77;98982.13;3194169;23;20032;-86
2023/04/05 02:16:31;;;;;;;9.35;4.57;;;;;;;-3.73;91.54;98978.84;3194432;23;20017;-87
2023/04/05 02:17:47;;;;;;;9.20;5.13;;;;;;;-3.78;90.41;98979.47;3194161;23;20040;-87
2023/04/05 02:19:04;;;;;;;10.93;4.70;;;;;;;-4.16;93.41;98982.31;3193958;23;20087;-87
2023/04/05 02:20:20;;;;;;;11.75;5.00;;;;;;;-4.14;93.68;98976.44;3193856;23;20465;-86
2023/04/05 02:21:36;;;;;;;10.70;5.00;;;;;;;-4.01;92.70;98976.94;3194183;23;20048;-87
2023/04/05 02:22:52;;;;;;;11.57;5.10;;;;;;;-3.98;92.36;98972.81;3194053;23;20028;-87
2023/04/05 02:24:08;;;;;;;11.23;4.82;;;;;;;-3.98;93.29;98969.38;3194053;23;20334;-87
2023/04/05 02:25:23;;;;;;;12.00;4.90;;;;;;;-4.05;91.63;98975.03;3193761;23;20186;-87
2023/04/05 02:26:39;;;;;;;10.43;4.88;;;;;;;-4.06;92.41;98975.88;3193651;23;20025;-87
2023/04/05 02:27:54;;;;;;;12.45;4.32;;;;;;;-4.07;93.92;98967.34;3194270;23;20017;-87
2023/04/05 02:29:10;;;;;;;10.43;4.47;;;;;;;-4.10;93.50;98969.78;3193802;23;20052;-87
2023/04/05 02:30:27;;;;;;;9.15;4.25;;;;;;;-4.20;95.00;98971.06;3194975;23;20087;-87
2023/04/05 02:31:43;;;;;;;11.00;4.93;;;;;;;-4.17;94.65;98966.09;3194031;23;20029;-87
2023/04/05 02:32:58;;;;;;;7.00;3.75;;;;;;;-4.26;93.90;98969.19;3193840;23;20326;-87
2023/04/05 02:34:14;;;;;;;11.13;4.38;;;;;;;-4.31;94.34;98967.25;3194394;23;20024;-87
2023/04/05 02:35:29;;;;;;;9.38;4.50;;;;;;;-4.26;94.99;98969.19;3193799;23;20025;-87
2023/04/05 02:36:46;;;;;;;9.77;4.13;;;;;;;-4.32;95.76;98968.91;3193782;23;20021;-87
2023/04/05 02:38:03;;;;;;;9.10;4.18;;;;;;;-4.41;96.21;98966.88;3194053;23;20088;-87
2023/04/05 02:39:19;;;;;;;6.47;3.53;;;;;;;-4.32;95.50;98968.06;3193713;23;20017;-87
2023/04/05 02:40:35;;;;;;;10.63;3.88;;;;;;;-4.34;95.45;98965.44;3193937;23;20041;-87
2023/04/05 02:41:50;;;;;;;9.52;3.78;;;;;;;-4.25;94.80;98962.38;3193246;23;20032;-87
2023/04/05 02:43:06;;;;;;;8.75;3.63;;;;;;;-4.40;97.04;98970.28;3194074;23;20300;-87
2023/04/05 02:44:22;;;;;;;9.05;4.20;;;;;;;-4.46;98.35;98962.38;3193736;23;20063;-87
2023/04/05 02:45:37;;;;;;;8.60;4.40;;;;;;;-4.38;97.83;98965.25;3193852;23;20488;-86
2023/04/05 02:46:53;;;;;;;8.25;4.63;;;;;;;-4.49;100.00;98970.78;3193802;23;20024;-87
2023/04/05 02:48:08;;;;;;;9.23;4.00;;;;;;;-4.45;99.85;98967.56;3193818;23;20607;-87
2023/04/05 02:49:24;;;;;;;9.48;4.32;;;;;;;-4.37;97.65;98960.19;3193888;23;20064;-87
2023/04/05 02:50:39;;;;;;;10.45;3.80;;;;;;;-4.34;97.44;98965.44;3193592;23;20075;-87
2023/04/05 02:51:55;;;;;;;9.52;3.95;;;;;;;-4.34;96.52;98967.09;3193973;23;20021;-87
2023/04/05 02:53:11;;;;;;;9.23;4.18;;;;;;;-4.28;96.97;98968.22;3193862;23;20025;-87
2023/04/05 02:54:27;;;;;;;6.80;3.47;;;;;;;-4.30;98.61;98964.72;3193799;23;20021;-87
2023/04/05 02:55:51;;;;;;;10.05;4.40;;;;;;;-4.34;98.27;98964.53;3193995;23;20345;-87
2023/04/05 02:57:10;;;;;;;10.85;3.80;;;;;;;-4.44;98.43;98961.63;3194037;23;20116;-87
2023/04/05 02:58:25;;;;;;;7.57;3.50;;;;;;;-4.38;98.25;98961.00;3177805;23;20418;-87
2023/04/05 02:59:41;;;;;;;7.10;3.53;;;;;;;-4.36;98.26;98959.38;3183596;23;20347;-86
2023/04/05 03:01:00;;;;;;;10.57;4.03;;;;;;;-4.30;98.17;98957.06;3193786;23;20021;-86
2023/04/05 03:02:15;;;;;;;8.05;3.35;;;;;;;-4.22;96.55;98956.50;3193825;23;20410;-87
2023/04/05 03:03:36;;;;;;;7.00;3.63;;;;;;;-4.27;96.03;98959.72;3193906;23;20024;-86
2023/04/05 03:04:52;;;;;;;7.40;3.47;;;;;;;-4.21;95.52;98958.25;3193939;23;20021;-87
2023/04/05 03:06:10;;;;;;;9.02;3.50;;;;;;;-4.31;95.84;98957.88;3193968;23;20021;-87
2023/04/05 03:07:26;;;;;;;8.20;2.95;;;;;;;-4.29;96.74;98957.94;3193566;23;20055;-86
2023/04/05 03:08:45;;;;;;;8.60;2.90;;;;;;;-4.27;97.40;98954.63;3193916;23;20508;-87
2023/04/05 03:10:01;;;;;;;8.20;3.38;;;;;;;-4.56;100.00;98963.69;3193843;23;20021;-87
2023/04/05 03:11:17;;;;;;;6.60;3.03;;;;;;;-4.46;98.47;98963.25;3193395;23;20021;-87
2023/04/05 03:12:32;;;;;;;8.73;3.15;;;;;;;-4.42;97.20;98966.78;3207535;23;20031;-87
2023/04/05 03:13:48;;;;;;;9.40;3.88;;;;;;;-4.53;97.79;98966.38;3209190;23;20112;-87
2023/04/05 03:15:04;;;;;;;8.77;3.88;;;;;;;-4.68;98.26;98964.94;3209958;23;20025;-86
2023/04/05 03:16:20;;;;;;;6.80;3.10;;;;;;;-4.64;97.88;98967.59;3209186;23;20024;-87
2023/04/05 03:17:36;;;;;;;7.28;3.15;;;;;;;-4.78;100.00;98964.50;3209130;23;20025;-87
2023/04/05 03:18:52;;;;;;;7.00;3.20;;;;;;;-4.69;100.00;98963.19;3209395;23;20020;-87
2023/04/05 03:20:08;;;;;;;8.35;3.90;;;;;;;-4.72;100.00;98970.72;3209166;23;20017;-87
2023/04/05 03:21:25;;;;;;;6.07;2.90;;;;;;;-4.59;100.00;98971.25;3208783;23;20051;-86
2023/04/05 03:22:41;;;;;;;6.03;2.90;;;;;;;-4.49;99.44;98960.56;3209450;23;20021;-87
2023/04/05 03:23:57;;;;;;;7.97;3.40;;;;;;;-4.57;99.07;98961.94;3209453;23;20020;-87
2023/04/05 03:25:13;;;;;;;10.10;3.63;;;;;;;-4.65;100.00;98953.97;3209254;23;20098;-87
2023/04/05 03:26:29;;;;;;;7.65;3.22;;;;;;;-4.66;100.00;98959.00;3209173;23;20051;-87
2023/04/05 03:27:44;;;;;;;7.20;3.20;;;;;;;-4.45;99.46;98952.22;3192783;23;20029;-86
2023/04/05 03:29:00;;;;;;;8.45;3.33;;;;;;;-4.53;97.20;98953.59;3199344;23;20028;-87
2023/04/05 03:30:16;;;;;;;7.63;3.20;;;;;;;-4.45;97.23;98954.78;3209034;23;20079;-87
2023/04/05 03:31:32;;;;;;;6.07;2.78;;;;;;;-4.47;95.54;98955.53;3208883;23;20070;-87
2023/04/05 03:32:47;;;;;;;5.97;3.15;;;;;;;-4.45;95.48;98952.22;3209104;23;20024;-87
2023/04/05 03:34:03;;;;;;;9.02;3.15;;;;;;;-4.47;94.77;98952.97;3209252;23;20020;-86
2023/04/05 03:35:18;;;;;;;6.97;2.95;;;;;;;-4.57;95.63;98949.19;3209363;23;20027;-87
2023/04/05 03:36:41;;;;;;;6.28;2.80;;;;;;;-4.74;98.87;98951.91;3209339;23;20456;-86
2023/04/05 03:37:56;;;;;;;3.75;2.15;;;;;;;-4.64;99.38;98953.16;3209155;23;20091;-87
2023/04/05 03:39:12;;;;;;;7.63;3.45;;;;;;;-4.60;100.00;98949.91;3209390;23;20020;-87
2023/04/05 03:40:28;;;;;;;7.90;2.63;;;;;;;-4.75;100.00;98952.72;3209369;23;20453;-87
2023/04/05 03:41:43;;;;;;;4.03;2.42;;;;;;;-4.80;100.00;98951.63;3209702;23;20025;-86
2023/04/05 03:42:59;;;;;;;5.50;2.55;;;;;;;-4.82;100.00;98950.72;3210281;23;20444;-87
2023/04/05 03:44:14;;;;;;;7.55;2.83;;;;;;;-4.87;100.00;98950.50;3209086;23;20024;-87
2023/04/05 03:45:30;;;;;;;4.63;2.25;;;;;;;-4.70;100.00;98956.34;3209207;23;20031;-87
2023/04/05 03:46:46;;;;;;;8.52;2.40;;;;;;;-4.63;99.93;98956.56;3208788;23;20024;-87
2023/04/05 03:48:02;;;;;;;6.90;2.65;;;;;;;-4.85;100.00;98954.00;3209260;23;20020;-87
2023/04/05 03:49:18;;;;;;;7.18;2.35;;;;;;;-4.80;100.00;98951.63;3209166;23;20042;-87
2023/04/05 03:50:34;;;;;;;3.97;2.03;;;;;;;-4.86;100.00;98956.50;3208799;23;20020;-84
2023/04/05 03:51:49;;;;;;;8.02;2.33;;;;;;;-4.90;99.45;98952.94;3209106;23;20024;-86
2023/04/05 03:53:05;;;;;;;7.82;2.17;;;;;;;-4.73;98.97;98957.88;3208911;23;20024;-87
2023/04/05 03:54:20;;;;;;;4.90;2.45;;;;;;;-4.66;100.00;98954.78;3209168;23;20021;-85
2023/04/05 03:55:36;;;;;;;4.30;2.60;;;;;;;-4.80;100.00;98955.91;3208851;23;20029;-86
2023/04/05 03:56:52;;;;;;;4.60;2.40;;;;;;;-4.90;100.00;98959.72;3209210;23;20032;-87
2023/04/05 03:58:07;;;;;;;5.25;2.00;;;;;;;-4.94;100.00;98952.75;3209294;23;20024;-87
2023/04/05 03:59:22;;;;;;;5.07;2.70;;;;;;;-4.96;100.00;98957.78;3209358;23;20028;-89
2023/04/05 04:00:38;;;;;;;5.53;2.13;;;;;;;-4.95;100.00;98954.44;3208074;23;20025;-88
2023/04/05 04:01:54;;;;;;;6.53;2.78;;;;;;;-4.80;100.00;98958.44;3208677;23;20016;-88
2023/04/05 04:03:10;;;;;;;6.35;2.50;;;;;;;-4.79;100.00;98960.19;3209781;23;20021;-83
2023/04/05 04:04:26;;;;;;;5.65;2.20;;;;;;;-4.89;100.00;98956.34;3209336;23;20115;-89
2023/04/05 04:05:42;;;;;;;4.95;2.78;;;;;;;-4.80;99.36;98958.44;3208545;23;20460;-87
2023/04/05 04:06:57;;;;;;;6.00;2.47;;;;;;;-4.66;97.98;98953.91;3208935;23;20155;-88
2023/04/05 04:08:13;;;;;;;4.70;2.47;;;;;;;-4.62;98.73;98958.31;3192322;23;20025;-87
2023/04/05 04:09:29;;;;;;;6.85;2.22;;;;;;;-4.68;100.00;98956.38;3198948;23;20078;-84
2023/04/05 04:10:45;;;;;;;6.15;2.78;;;;;;;-4.58;99.95;98955.09;3209013;23;20040;-87
2023/04/05 04:12:01;;;;;;;7.38;3.00;;;;;;;-4.61;99.57;98952.38;3208826;23;20020;-87
2023/04/05 04:13:18;;;;;;;5.32;2.38;;;;;;;-4.59;98.45;98959.31;3209295;23;20081;-88
2023/04/05 04:14:34;;;;;;;4.35;2.47;;;;;;;-4.59;97.72;98953.34;3208710;23;20020;-87
2023/04/05 04:15:50;;;;;;;6.63;3.08;;;;;;;-4.65;95.70;98955.63;3208914;23;20063;-88
2023/04/05 04:17:05;;;;;;;6.95;2.70;;;;;;;-4.84;97.80;98954.88;3208718;23;20056;-87
2023/04/05 04:18:21;;;;;;;9.43;3.30;;;;;;;-4.84;98.11;98954.88;3207916;23;20025;-87
2023/04/05 04:19:36;;;;;;;12.43;3.92;;;;;;;-4.84;97.36;98955.75;3192317;23;20025;-86
2023/04/05 04:20:52;;;;;;;10.07;3.55;;;;;;;-4.86;97.02;98949.69;3198786;23;20024;-87
2023/04/05 04:22:09;;;;;;;8.85;3.35;;;;;;;-4.97;98.74;98956.91;3209161;23;20021;-86
2023/04/05 04:23:26;;;;;;;6.82;2.88;;;;;;;-5.01;98.24;98957.59;3209050;23;20088;-87
2023/04/05 04:24:45;;;;;;;9.60;3.20;;;;;;;-5.00;98.88;98959.34;3209779;23;20059;-85
2023/04/05 04:26:01;;;;;;;6.07;2.83;;;;;;;-4.99;98.68;98950.88;3209818;23;20460;-90
2023/04/05 04:27:17;;;;;;;7.15;3.03;;;;;;;-5.05;99.01;98963.38;3194159;23;20021;-90
2023/04/05 04:28:33;;;;;;;8.90;3.40;;;;;;;-5.06;98.35;98961.63;3200675;23;20048;-90
2023/04/05 04:29:49;;;;;;;8.40;3.13;;;;;;;-5.00;98.22;98963.56;3194084;23;20449;-90
2023/04/05 04:31:04;;;;;;;6.00;3.55;;;;;;;-4.91;96.46;98960.53;3200176;23;20023;-90
2023/04/05 04:32:25;;;;;;;7.20;3.00;;;;;;;-4.79;97.08;98958.50;3210392;23;20338;-89
2023/04/05 04:33:42;;;;;;;7.00;3.22;;;;;;;-4.75;95.04;98965.50;3209188;23;20025;-90
2023/04/05 04:34:57;;;;;;;5.45;2.70;;;;;;;-4.91;95.07;98969.09;3209525;23;20025;-90
2023/04/05 04:36:13;;;;;;;6.63;2.83;;;;;;;-4.88;94.36;98963.25;3210497;23;20044;-90
2023/04/05 04:37:29;;;;;;;7.95;3.10;;;;;;;-4.88;94.11;98965.78;3210475;23;20100;-91
2023/04/05 04:38:44;;;;;;;8.10;3.70;;;;;;;-4.82;94.61;98963.47;3210321;23;20025;-90
2023/04/05 04:40:02;;;;;;;11.93;4.70;;;;;;;-4.70;95.12;98961.44;3210353;23;20032;-91
2023/04/05 04:41:21;;;;;;;7.80;3.97;;;;;;;-4.64;94.88;98962.50;3210173;23;20520;-91
2023/04/05 04:42:37;;;;;;;8.25;3.88;;;;;;;-4.58;93.75;98957.66;3209724;23;20124;-89
2023/04/05 04:43:53;;;;;;;9.45;3.08;;;;;;;-4.58;94.24;98962.75;3210155;23;20024;-92
2023/04/05 04:45:10;;;;;;;6.78;3.33;;;;;;;-4.65;93.19;98961.63;3210017;23;20031;-91
2023/04/05 04:46:29;;;;;;;12.18;3.60;;;;;;;-4.79;94.58;98957.63;3209909;23;20017;-91
2023/04/05 04:47:46;;;;;;;7.53;3.30;;;;;;;-4.68;93.78;98957.25;3209962;23;20025;-90
2023/04/05 04:49:04;;;;;;;8.90;4.18;;;;;;;-4.75;94.44;98952.72;3210140;23;20020;-91
2023/04/05 04:50:20;;;;;;;7.13;3.85;;;;;;;-4.72;93.98;98957.97;3210083;23;20048;-90
2023/04/05 04:51:37;;;;;;;7.78;3.50;;;;;;;-4.82;96.79;98963.47;3209967;23;20032;-89
2023/04/05 04:52:52;;;;;;;10.27;4.10;;;;;;;-4.78;98.00;98960.25;3210360;23;20025;-91
2023/04/05 04:54:07;;;;;;;8.75;3.78;;;;;;;-4.76;97.90;98956.06;3210231;23;20464;-93
2023/04/05 04:55:27;;;;;;;8.85;3.63;;;;;;;-4.69;98.26;98960.63;3210415;23;20051;-89
2023/04/05 04:56:42;;;;;;;11.07;4.65;;;;;;;-4.56;96.32;98968.81;3210087;23;20032;-92
2023/04/05 04:57:58;;;;;;;9.80;4.57;;;;;;;-4.65;95.55;98961.63;3209596;23;20472;-91
2023/04/05 04:59:14;;;;;;;8.27;4.18;;;;;;;-4.84;97.98;98965.09;3210666;23;20361;-91
2023/04/05 05:00:30;;;;;;;7.65;4.00;;;;;;;-4.77;99.34;98956.00;3210289;23;20111;-90
2023/04/05 05:01:45;;;;;;;9.30;4.15;;;;;;;-4.79;99.08;98955.09;3210856;23;20024;-94
2023/04/05 05:03:02;;;;;;;10.05;4.85;;;;;;;-4.85;100.00;98961.66;3193431;23;20028;-91
2023/04/05 05:04:17;;;;;;;8.93;4.93;;;;;;;-4.88;100.00;98959.00;3200691;23;20074;-91
2023/04/05 05:05:33;;;;;;;9.00;4.28;;;;;;;-4.82;100.00;98959.25;3210277;23;20021;-91
2023/04/05 05:06:52;;;;;;;6.70;4.00;;;;;;;-4.69;99.76;98965.75;3209885;23;20464;-93
2023/04/05 05:08:08;;;;;;;8.95;4.38;;;;;;;-4.46;98.21;98963.25;3210101;23;20092;-90
2023/04/05 05:09:24;;;;;;;11.70;4.85;;;;;;;-4.38;97.60;98962.69;3210226;23;20048;-90
2023/04/05 05:10:39;;;;;;;11.35;4.88;;;;;;;-4.33;95.89;98959.50;3209882;23;20360;-91
2023/04/05 05:11:58;;;;;;;10.25;4.95;;;;;;;-4.17;95.54;98955.88;3210560;23;20113;-91
2023/04/05 05:13:14;;;;;;;9.07;4.78;;;;;;;-4.13;95.91;98965.41;3210239;23;20863;-91
2023/04/05 05:14:29;;;;;;;10.18;5.10;;;;;;;-4.08;95.06;98955.38;3209876;23;20024;-89
2023/04/05 05:15:45;;;;;;;13.23;4.78;;;;;;;-4.01;95.72;98961.59;3210541;23;20024;-91
2023/04/05 05:17:01;;;;;;;7.72;3.70;;;;;;;-3.98;95.33;98961.69;3209526;23;20024;-91
2023/04/05 05:18:16;;;;;;;7.85;4.10;;;;;;;-3.94;94.14;98957.59;3210674;23;20020;-92
2023/04/05 05:19:32;;;;;;;8.35;5.07;;;;;;;-3.95;92.30;98966.06;3210076;23;20027;-92
2023/04/05 05:20:50;;;;;;;9.48;4.15;;;;;;;-3.97;93.38;98963.44;3210016;23;20025;-91
2023/04/05 05:22:06;;;;;;;8.52;4.25;;;;;;;-3.92;93.97;98958.50;3210414;23;20357;-91
2023/04/05 05:23:21;;;;;;;12.68;4.78;;;;;;;-3.77;95.40;98960.75;3210118;23;20017;-91
2023/04/05 05:24:37;;;;;;;9.20;4.82;;;;;;;-3.67;95.25;98967.13;3209972;23;20357;-92
2023/04/05 05:25:59;;;;;;;8.48;4.57;;;;;;;-3.56;95.77;98960.72;3210319;23;20480;-93
2023/04/05 05:27:15;;;;;;;7.65;4.65;;;;;;;-3.55;97.35;98960.75;3209913;23;20497;-92
2023/04/05 05:28:30;;;;;;;9.27;4.75;;;;;;;-3.51;99.13;98960.88;3210707;23;20042;-91
2023/04/05 05:29:46;;;;;;;8.75;4.40;;;;;;;-3.46;100.00;98964.47;3211158;23;20194;-91
2023/04/05 05:31:02;;;;;;;7.95;4.43;;;;;;;-3.43;100.00;98962.03;3210102;23;20044;-91
2023/04/05 05:32:18;;;;;;;11.82;4.95;;;;;;;-3.37;100.00;98962.25;3210096;23;20049;-91
2023/04/05 05:33:33;;;;;;;12.45;4.78;;;;;;;-3.29;100.00;98959.94;3208915;23;20031;-91
2023/04/05 05:34:49;;;;;;;11.20;4.47;;;;;;;-3.26;100.00;98957.53;3209401;23;20784;-90
2023/04/05 05:36:06;;;;;;;10.13;5.30;;;;;;;-3.36;100.00;98953.72;3210660;23;20024;-91
2023/04/05 05:37:28;;;;;;;10.60;5.15;;;;;;;-3.32;100.00;98963.28;3209574;23;20048;-91
2023/04/05 05:38:45;;;;;;;11.63;5.40;;;;;;;-3.24;100.00;98962.69;3210021;23;20460;-90
2023/04/05 05:40:00;;;;;;;12.82;5.00;;;;;;;-3.15;100.00;98965.56;3209421;23;20428;-91
2023/04/05 05:41:16;;;;;;;11.70;4.95;;;;;;;-3.06;100.00;98965.03;3209938;23;20031;-91
2023/04/05 05:42:32;;;;;;;10.95;5.30;;;;;;;-3.25;100.00;98961.81;3209840;23;20028;-91
2023/04/05 05:43:48;;;;;;;9.80;4.93;;;;;;;-3.13;100.00;98967.38;3210129;23;20024;-91
2023/04/05 05:45:05;;;;;;;12.52;6.38;;;;;;;-2.95;100.00;98967.94;3210268;23;20460;-91
2023/04/05 05:46:20;;;;;;;10.23;5.28;;;;;;;-2.80;100.00;98963.34;3209891;23;20055;-90
2023/04/05 05:47:36;;;;;;;13.30;5.40;;;;;;;-2.71;100.00;98963.66;3210124;23;20292;-92
2023/04/05 05:48:51;;;;;;;12.35;4.50;;;;;;;-2.57;100.00;98953.91;3209565;23;20112;-88
2023/04/05 05:50:08;;;;;;;9.85;4.75;;;;;;;-2.59;100.00;98960.63;3210840;23;20020;-90
2023/04/05 05:51:24;;;;;;;9.40;5.03;;;;;;;-2.54;100.00;98965.91;3209635;23;20021;-95
2023/04/05 05:52:39;;;;;;;9.68;4.18;;;;;;;-2.47;100.00;98959.31;3210290;23;20025;-94
2023/04/05 05:53:55;;;;;;;8.88;4.65;;;;;;;-2.41;100.00;98955.25;3210046;23;20032;-95
2023/04/05 05:55:10;;;;;;;9.70;4.68;;;;;;;-2.32;100.00;98956.38;3210146;23;20259;-95
2023/04/05 05:56:26;;;;;;;9.90;4.68;;;;;;;-2.30;100.00;98957.28;3209893;23;20020;-93
2023/04/05 05:57:42;;;;;;;11.82;4.50;;;;;;;-2.39;100.00;98952.75;3209360;23;20104;-94
2023/04/05 05:58:58;;;;;;;11.52;4.10;;;;;;;-2.49;100.00;98950.69;3209421;23;20464;-95
2023/04/05 06:00:14;;;;;;;9.45;4.53;;;;;;;-2.25;100.00;98955.72;3209808;23;20048;-95